Time;durP1;ratioP1;P1;durP2;ratioP2;P2;SDS_P1;SDS_P2;PMS_P1;PMS_P2;Temp;Humidity;BMP_temperature;BMP_pressure;BME280_temperature;BME280_humidity;BME280_pressure;Samples;Min_cycle;Max_cycle;Signal;HPM_P1;HPM_P2
2022/08/28 00:01:32;;;;;;;18.70;6.07;;;21.90;98.50;;;;;;4991262;28;20234;-70
2022/08/28 00:03:59;;;;;;;15.10;5.90;;;21.90;98.70;;;;;;4989592;28;20211;-68
2022/08/28 00:06:26;;;;;;;15.93;6.40;;;21.90;98.70;;;;;;4990080;28;20300;-70
2022/08/28 00:08:53;;;;;;;19.33;6.70;;;22.00;98.90;;;;;;4991100;28;20268;-70
2022/08/28 00:11:22;;;;;;;18.80;6.93;;;22.00;99.30;;;;;;4991314;28;20295;-70
2022/08/28 00:13:50;;;;;;;16.10;7.47;;;22.00;99.90;;;;;;4991212;28;20242;-69
2022/08/28 00:16:17;;;;;;;18.27;7.60;;;22.00;99.90;;;;;;4991379;28;20204;-69
2022/08/28 00:18:45;;;;;;;17.57;7.20;;;22.00;99.90;;;;;;4990719;28;20204;-71
2022/08/28 00:21:12;;;;;;;15.97;7.37;;;22.00;99.90;;;;;;4989935;28;20223;-70
2022/08/28 00:23:39;;;;;;;16.07;6.60;;;22.00;99.90;;;;;;4990733;28;20211;-69
2022/08/28 00:26:06;;;;;;;14.43;6.33;;;22.00;99.90;;;;;;4991119;28;20615;-70
2022/08/28 00:28:34;;;;;;;16.77;7.70;;;22.00;99.90;;;;;;4990811;28;20565;-70
2022/08/28 00:31:01;;;;;;;19.67;8.17;;;22.00;99.90;;;;;;4991223;28;20683;-69
2022/08/28 00:33:29;;;;;;;17.70;6.83;;;22.00;99.90;;;;;;4990912;28;20239;-71
2022/08/28 00:35:57;;;;;;;20.17;7.10;;;22.00;99.90;;;;;;4990903;28;20208;-70
2022/08/28 00:38:26;;;;;;;15.53;6.57;;;22.00;99.90;;;;;;4990845;28;20756;-70
2022/08/28 00:40:55;;;;;;;18.47;6.20;;;22.00;99.90;;;;;;4990948;28;20721;-71
2022/08/28 00:43:33;;;;;;;19.77;6.70;;;22.00;99.90;;;;;;4990345;28;20219;-71
2022/08/28 00:46:02;;;;;;;18.60;6.13;;;22.00;99.90;;;;;;4990935;28;20196;-69
2022/08/28 00:48:30;;;;;;;18.90;5.80;;;22.00;99.90;;;;;;4990685;28;20614;-70
2022/08/28 00:53:42;;;;;;;16.33;6.20;;;22.00;99.90;;;;;;4990469;28;20191;-69
2022/08/28 00:56:11;;;;;;;15.57;5.40;;;22.00;99.90;;;;;;4989569;28;20218;-69
2022/08/28 00:58:39;;;;;;;21.53;5.30;;;22.00;99.90;;;;;;4990434;28;20306;-70
2022/08/28 01:01:08;;;;;;;17.20;5.57;;;22.00;99.90;;;;;;4989653;28;20224;-68
2022/08/28 01:03:36;;;;;;;25.60;5.93;;;22.00;99.90;;;;;;4990486;28;20213;-69
2022/08/28 01:06:03;;;;;;;20.60;4.87;;;22.00;99.90;;;;;;4990243;28;20299;-69
2022/08/28 01:08:30;;;;;;;21.50;5.00;;;22.00;99.90;;;;;;4988524;28;20210;-70
2022/08/28 01:10:59;;;;;;;22.17;5.20;;;22.00;99.90;;;;;;4990681;28;20665;-69
2022/08/28 01:13:27;;;;;;;17.20;5.57;;;22.00;99.90;;;;;;4990270;28;20661;-69
2022/08/28 01:15:55;;;;;;;21.67;6.57;;;22.00;99.90;;;;;;4990424;28;20741;-69
2022/08/28 01:18:24;;;;;;;18.03;5.83;;;22.00;99.90;;;;;;4989993;28;20208;-69
2022/08/28 01:20:57;;;;;;;18.10;5.97;;;21.90;99.90;;;;;;4990410;28;20299;-70
2022/08/28 01:23:40;;;;;;;20.43;6.63;;;21.90;99.90;;;;;;4988373;28;20588;-69
2022/08/28 01:26:07;;;;;;;15.77;6.00;;;21.90;99.90;;;;;;4990388;28;20196;-70
2022/08/28 01:28:34;;;;;;;16.80;6.67;;;21.90;99.90;;;;;;4989692;28;20211;-69
2022/08/28 01:31:01;;;;;;;15.60;6.40;;;21.90;99.90;;;;;;4990121;28;20302;-70
2022/08/28 01:33:28;;;;;;;15.63;6.33;;;21.90;99.90;;;;;;4989676;28;20207;-69
2022/08/28 01:35:55;;;;;;;14.57;5.77;;;21.90;99.90;;;;;;4990342;28;20215;-69
2022/08/28 01:38:21;;;;;;;18.60;6.57;;;21.90;99.90;;;;;;4987594;28;20322;-69
2022/08/28 01:40:53;;;;;;;19.80;5.67;;;21.90;99.90;;;;;;4989623;28;20303;-70
2022/08/28 01:43:22;;;;;;;15.63;5.90;;;21.90;99.90;;;;;;4989711;28;20251;-69
2022/08/28 01:45:53;;;;;;;18.13;5.97;;;21.90;99.90;;;;;;4989593;28;20233;-69
2022/08/28 01:48:22;;;;;;;16.30;6.17;;;21.90;99.90;;;;;;4989256;28;20333;-69
2022/08/28 01:50:49;;;;;;;14.77;6.13;;;21.80;99.90;;;;;;4989769;28;20623;-70
2022/08/28 01:53:22;;;;;;;19.87;5.70;;;21.80;99.90;;;;;;4989030;28;20689;-70
2022/08/28 01:55:51;;;;;;;15.57;5.80;;;21.80;99.90;;;;;;4989618;28;20218;-69
2022/08/28 01:58:18;;;;;;;23.40;5.90;;;21.80;99.90;;;;;;4989476;28;20293;-69
2022/08/28 02:00:45;;;;;;;16.00;5.37;;;21.70;99.90;;;;;;4988180;28;20223;-70
2022/08/28 02:03:12;;;;;;;21.63;6.17;;;21.80;99.90;;;;;;4989514;28;20231;-70
2022/08/28 02:05:40;;;;;;;25.93;5.90;;;21.70;99.90;;;;;;4989261;28;20214;-69
2022/08/28 02:08:07;;;;;;;17.93;5.87;;;21.70;99.90;;;;;;4989063;28;20207;-69
2022/08/28 02:10:37;;;;;;;18.20;6.17;;;21.70;99.90;;;;;;4989661;28;20306;-70
2022/08/28 02:13:07;;;;;;;15.23;6.40;;;21.70;99.90;;;;;;4989438;28;20265;-70
2022/08/28 02:15:36;;;;;;;17.20;6.33;;;21.70;99.90;;;;;;4986502;28;20207;-69
2022/08/28 02:18:03;;;;;;;18.43;6.27;;;21.70;99.90;;;;;;4984617;28;20654;-69
2022/08/28 02:20:32;;;;;;;20.20;7.27;;;21.70;99.90;;;;;;4985280;28;20207;-69
2022/08/28 02:22:59;;;;;;;21.50;7.27;;;21.70;99.90;;;;;;4989297;28;20248;-69
2022/08/28 02:25:28;;;;;;;14.90;6.30;;;21.60;99.90;;;;;;4988622;28;20301;-69
2022/08/28 02:27:55;;;;;;;18.77;6.03;;;21.60;99.90;;;;;;4988917;28;20261;-68
2022/08/28 02:30:23;;;;;;;16.87;6.13;;;21.60;99.90;;;;;;4989077;28;20611;-68
2022/08/28 02:32:50;;;;;;;14.73;5.80;;;21.60;99.90;;;;;;4988357;28;20417;-69
2022/08/28 02:35:19;;;;;;;18.47;5.93;;;21.60;99.90;;;;;;4989134;28;20290;-70
2022/08/28 02:37:46;;;;;;;18.57;6.30;;;21.60;99.90;;;;;;4989270;28;20584;-69
2022/08/28 02:40:15;;;;;;;14.90;6.23;;;21.60;99.90;;;;;;4988694;28;20676;-69
2022/08/28 02:42:43;;;;;;;17.17;6.33;;;21.50;99.90;;;;;;4988708;28;20230;-70
2022/08/28 02:45:11;;;;;;;22.27;7.40;;;21.50;99.90;;;;;;4988642;28;20295;-68
2022/08/28 02:47:41;;;;;;;20.13;7.13;;;21.40;99.90;;;;;;4988972;28;20291;-70
2022/08/28 02:50:09;;;;;;;22.63;7.53;;;21.30;99.90;;;;;;4988321;28;20261;-69
2022/08/28 02:52:37;;;;;;;21.40;7.97;;;21.30;99.90;;;;;;4988940;28;20204;-70
2022/08/28 02:55:04;;;;;;;20.90;7.93;;;21.30;99.90;;;;;;4988510;28;20725;-69
2022/08/28 02:57:31;;;;;;;21.47;8.70;;;21.30;99.90;;;;;;4988596;28;20222;-69
2022/08/28 02:59:58;;;;;;;22.73;9.23;;;21.30;99.90;;;;;;4988692;28;20214;-70
2022/08/28 03:02:25;;;;;;;25.63;9.90;;;21.30;99.90;;;;;;4987849;28;20220;-69
2022/08/28 03:04:54;;;;;;;26.00;9.30;;;21.30;99.90;;;;;;4987874;28;20623;-68
2022/08/28 03:07:21;;;;;;;20.43;8.70;;;21.20;99.90;;;;;;4988592;28;20644;-69
2022/08/28 03:09:48;;;;;;;20.43;8.37;;;21.10;99.90;;;;;;4988557;28;20203;-69
2022/08/28 03:12:15;;;;;;;22.13;8.50;;;21.00;99.90;;;;;;4988523;28;20756;-70
2022/08/28 03:14:42;;;;;;;25.77;8.40;;;20.90;99.90;;;;;;4988378;28;20211;-69
2022/08/28 03:17:09;;;;;;;23.50;8.13;;;20.90;99.90;;;;;;4988134;28;20206;-69
2022/08/28 03:19:36;;;;;;;20.87;7.30;;;20.80;99.90;;;;;;4988156;28;20213;-69
2022/08/28 03:22:04;;;;;;;18.33;6.97;;;20.80;99.90;;;;;;4986956;28;20316;-69
2022/08/28 03:24:30;;;;;;;25.57;7.37;;;20.90;99.90;;;;;;4992163;28;20652;-71
2022/08/28 03:27:00;;;;;;;20.33;6.57;;;20.90;99.90;;;;;;4991468;28;20294;-69
2022/08/28 03:29:27;;;;;;;22.87;7.70;;;21.00;99.90;;;;;;4992048;28;20609;-70
2022/08/28 03:31:54;;;;;;;18.10;6.77;;;21.00;99.90;;;;;;4991770;28;20306;-70
2022/08/28 03:34:21;;;;;;;20.23;6.93;;;21.00;99.90;;;;;;4991815;28;20228;-70
2022/08/28 03:36:48;;;;;;;19.50;6.77;;;21.10;99.90;;;;;;4989726;28;20225;-70
2022/08/28 03:39:16;;;;;;;17.50;7.53;;;21.10;99.90;;;;;;4991213;28;20631;-71
2022/08/28 03:41:43;;;;;;;19.70;7.43;;;21.10;99.90;;;;;;4991292;28;20206;-69
2022/08/28 03:44:10;;;;;;;25.37;7.23;;;21.10;99.90;;;;;;4991020;28;20235;-67
2022/08/28 03:46:38;;;;;;;18.80;6.67;;;21.10;99.90;;;;;;4991276;28;20247;-69
2022/08/28 03:49:06;;;;;;;21.63;7.43;;;21.10;99.90;;;;;;4991291;28;20210;-70
2022/08/28 03:51:33;;;;;;;17.57;7.60;;;21.20;99.90;;;;;;4992004;28;20294;-70
2022/08/28 03:54:01;;;;;;;19.70;8.57;;;21.20;99.90;;;;;;4990906;28;20223;-70
2022/08/28 03:56:31;;;;;;;21.33;8.33;;;21.20;99.90;;;;;;4991572;28;20298;-69
2022/08/28 03:59:00;;;;;;;19.70;8.77;;;21.20;99.90;;;;;;4991421;28;20286;-70
2022/08/28 04:01:27;;;;;;;20.33;9.43;;;21.20;99.90;;;;;;4991584;28;20699;-69
2022/08/28 04:03:55;;;;;;;20.33;8.47;;;21.20;99.90;;;;;;4990896;28;20223;-69
2022/08/28 04:06:22;;;;;;;16.47;9.20;;;21.20;99.90;;;;;;4991383;28;20216;-69
2022/08/28 04:08:50;;;;;;;17.70;8.80;;;21.20;99.90;;;;;;4991472;28;20614;-70
2022/08/28 04:11:17;;;;;;;27.97;9.60;;;21.20;99.90;;;;;;4990937;28;20215;-70
2022/08/28 04:13:46;;;;;;;19.70;9.77;;;21.20;99.90;;;;;;4991884;28;20695;-70
2022/08/28 04:16:17;;;;;;;21.43;9.00;;;21.10;99.90;;;;;;4991858;28;20326;-69
2022/08/28 04:18:46;;;;;;;18.77;8.43;;;21.10;99.90;;;;;;4992305;28;20910;-70
2022/08/28 04:21:16;;;;;;;21.37;9.27;;;21.00;99.90;;;;;;4991787;28;20207;-69
2022/08/28 04:23:44;;;;;;;18.07;8.70;;;21.00;99.90;;;;;;4991859;28;20568;-70
2022/08/28 04:26:19;;;;;;;20.37;9.10;;;21.00;99.90;;;;;;4990722;28;20208;-70
2022/08/28 04:28:48;;;;;;;20.37;8.50;;;21.10;99.90;;;;;;4991010;28;20290;-69
2022/08/28 04:31:16;;;;;;;19.37;7.30;;;21.10;99.90;;;;;;4991426;28;20776;-69
2022/08/28 04:33:43;;;;;;;16.37;7.73;;;21.10;99.90;;;;;;4991426;28;20216;-69
2022/08/28 04:36:13;;;;;;;19.03;8.30;;;21.20;99.90;;;;;;4990597;28;20700;-69
2022/08/28 04:38:41;;;;;;;30.40;9.47;;;21.20;99.90;;;;;;4991199;28;20222;-69
2022/08/28 04:41:11;;;;;;;19.43;9.17;;;21.20;99.90;;;;;;4989848;28;20207;-70
2022/08/28 04:43:38;;;;;;;19.53;7.87;;;21.20;99.90;;;;;;4990284;28;20291;-69
2022/08/28 04:46:10;;;;;;;18.90;7.40;;;21.30;99.90;;;;;;4989921;28;20884;-69
2022/08/28 04:48:37;;;;;;;17.50;7.20;;;21.30;99.90;;;;;;4989497;28;20200;-69
2022/08/28 04:51:07;;;;;;;19.40;7.30;;;21.40;99.90;;;;;;4989351;28;20216;-69
2022/08/28 04:53:34;;;;;;;21.27;7.40;;;21.50;99.90;;;;;;4990668;28;20206;-69
2022/08/28 04:56:03;;;;;;;19.23;7.40;;;21.50;99.90;;;;;;4989993;28;20196;-69
2022/08/28 04:58:32;;;;;;;18.43;6.60;;;21.50;99.90;;;;;;4989957;28;20235;-71
2022/08/28 05:01:04;;;;;;;24.50;6.80;;;21.60;99.90;;;;;;4989400;28;20928;-69
2022/08/28 05:03:35;;;;;;;20.90;7.07;;;21.60;99.90;;;;;;4989434;28;20280;-69
2022/08/28 05:06:02;;;;;;;18.37;6.43;;;21.70;99.90;;;;;;4990195;28;20192;-71
2022/08/28 05:08:30;;;;;;;15.90;7.03;;;21.70;99.90;;;;;;4990209;28;20225;-71
2022/08/28 05:10:57;;;;;;;25.60;7.40;;;21.70;99.90;;;;;;4987525;28;20230;-71
2022/08/28 05:13:26;;;;;;;21.27;7.57;;;21.80;99.90;;;;;;4987520;28;20208;-71
2022/08/28 05:15:54;;;;;;;23.17;7.47;;;21.80;99.90;;;;;;4979532;28;20307;-74
2022/08/28 05:18:23;;;;;;;32.87;8.43;;;21.80;99.90;;;;;;4983964;28;20207;-72
2022/08/28 05:20:51;;;;;;;30.00;8.07;;;21.70;99.90;;;;;;4979588;28;20291;-70
2022/08/28 05:23:18;;;;;;;22.87;8.00;;;21.70;99.90;;;;;;4980504;28;20216;-73
2022/08/28 05:25:47;;;;;;;16.37;6.70;;;21.70;99.90;;;;;;4978950;28;20287;-72
2022/08/28 05:28:16;;;;;;;21.97;6.70;;;21.80;99.90;;;;;;4986132;28;20231;-73
2022/08/28 05:30:44;;;;;;;19.63;6.93;;;21.80;99.90;;;;;;4989358;28;20653;-71
2022/08/28 05:33:13;;;;;;;20.40;6.03;;;21.90;99.90;;;;;;4986900;28;20199;-71
2022/08/28 05:35:42;;;;;;;18.70;6.60;;;21.90;99.90;;;;;;4989506;28;20238;-72
2022/08/28 05:38:12;;;;;;;21.30;7.07;;;22.00;99.90;;;;;;4978703;28;20291;-71
2022/08/28 05:40:43;;;;;;;21.90;6.73;;;22.00;99.90;;;;;;4979716;28;20207;-71
2022/08/28 05:43:12;;;;;;;18.77;6.60;;;22.00;99.90;;;;;;4985672;28;20238;-71
2022/08/28 05:45:39;;;;;;;20.17;6.43;;;22.10;99.90;;;;;;4989970;28;20239;-72
2022/08/28 05:48:06;;;;;;;20.57;6.67;;;22.10;99.90;;;;;;4989331;28;20246;-72
2022/08/28 05:50:33;;;;;;;21.63;7.07;;;22.10;99.90;;;;;;4989719;28;20207;-72
2022/08/28 05:53:01;;;;;;;24.57;7.37;;;22.20;99.90;;;;;;4989454;28;20298;-73
2022/08/28 05:55:29;;;;;;;23.37;7.33;;;22.20;99.90;;;;;;4989866;28;20609;-73
2022/08/28 05:58:27;;;;;;;23.77;7.20;;;22.20;99.90;;;;;;4984945;28;20205;-72
2022/08/28 06:00:43;;;;;;;23.23;7.60;;;22.20;99.90;;;;;;4983637;28;20211;-72
2022/08/28 06:03:10;;;;;;;23.90;7.50;;;22.30;99.90;;;;;;4986988;28;20268;-72
2022/08/28 06:05:37;;;;;;;21.70;7.57;;;22.30;99.90;;;;;;4987234;28;20215;-73
2022/08/28 06:08:04;;;;;;;26.27;7.33;;;22.40;99.90;;;;;;4989088;28;20198;-72
2022/08/28 06:10:32;;;;;;;27.37;7.10;;;22.40;99.90;;;;;;4986719;28;20295;-73
2022/08/28 06:12:59;;;;;;;29.43;8.60;;;22.40;99.90;;;;;;4989693;28;20729;-73
2022/08/28 06:15:26;;;;;;;24.03;7.80;;;22.50;99.90;;;;;;4990380;28;20228;-72
2022/08/28 06:17:53;;;;;;;21.90;7.20;;;22.50;99.90;;;;;;4989941;28;20277;-71
2022/08/28 06:20:20;;;;;;;22.93;6.73;;;22.60;99.90;;;;;;4990507;28;20274;-71
2022/08/28 06:22:50;;;;;;;26.63;8.00;;;22.60;99.90;;;;;;4990304;28;20208;-72
2022/08/28 06:25:17;;;;;;;27.57;8.13;;;22.60;99.90;;;;;;4989510;28;20238;-72
2022/08/28 06:27:45;;;;;;;27.40;7.37;;;22.60;99.90;;;;;;4990120;28;20215;-72
2022/08/28 06:30:13;;;;;;;31.63;7.90;;;22.60;99.90;;;;;;4989607;28;20296;-73
2022/08/28 06:32:39;;;;;;;29.23;7.60;;;22.70;99.90;;;;;;4989482;28;20231;-73
2022/08/28 06:35:07;;;;;;;24.17;6.57;;;22.70;99.90;;;;;;4988933;28;20221;-70
2022/08/28 06:37:34;;;;;;;21.57;6.80;;;22.80;99.90;;;;;;4992795;28;20270;-72
2022/08/28 06:40:01;;;;;;;19.97;7.17;;;22.90;99.90;;;;;;4992666;28;20210;-73
2022/08/28 06:42:30;;;;;;;23.33;7.00;;;23.00;99.90;;;;;;4989961;28;20295;-71
2022/08/28 06:44:58;;;;;;;21.10;5.93;;;23.10;99.90;;;;;;4989933;28;20222;-70
2022/08/28 06:47:25;;;;;;;20.57;6.77;;;23.10;99.90;;;;;;4989149;28;20284;-70
2022/08/28 06:49:53;;;;;;;28.80;7.27;;;23.20;99.90;;;;;;4989886;28;20211;-70
2022/08/28 06:52:20;;;;;;;20.77;6.47;;;23.20;99.90;;;;;;4988855;28;20636;-71
2022/08/28 06:54:47;;;;;;;29.07;7.90;;;23.20;99.90;;;;;;4989200;28;20206;-70
2022/08/28 06:57:14;;;;;;;24.80;6.50;;;23.30;99.90;;;;;;4989621;28;20218;-71
2022/08/28 06:59:40;;;;;;;26.77;7.00;;;23.40;99.90;;;;;;4989327;28;20230;-71
2022/08/28 07:02:09;;;;;;;21.47;6.13;;;23.50;99.90;;;;;;4989751;28;20236;-72
2022/08/28 07:04:36;;;;;;;30.10;6.67;;;23.50;99.90;;;;;;4989694;28;20717;-68
2022/08/28 07:07:03;;;;;;;20.20;6.57;;;23.60;99.90;;;;;;4987823;28;20231;-71
2022/08/28 07:09:30;;;;;;;25.97;6.30;;;23.60;99.90;;;;;;4990103;28;20301;-72
2022/08/28 07:11:57;;;;;;;29.37;7.03;;;23.70;99.90;;;;;;4989752;28;20282;-71
2022/08/28 07:14:24;;;;;;;30.73;7.37;;;23.80;99.90;;;;;;4993209;28;20294;-72
2022/08/28 07:16:51;;;;;;;27.60;6.87;;;23.80;99.90;;;;;;4992503;28;20279;-75
2022/08/28 07:19:20;;;;;;;26.07;6.50;;;23.90;99.90;;;;;;4991931;28;20246;-73
2022/08/28 07:21:46;;;;;;;27.47;7.13;;;23.90;99.90;;;;;;4989661;28;20246;-72
2022/08/28 07:24:16;;;;;;;24.97;6.87;;;23.90;99.90;;;;;;4991849;28;20237;-73
2022/08/28 07:26:44;;;;;;;24.23;6.63;;;23.90;99.90;;;;;;4989414;28;20752;-72
2022/08/28 07:29:12;;;;;;;25.83;6.97;;;23.90;99.90;;;;;;4991347;28;20233;-72
2022/08/28 07:31:40;;;;;;;22.00;6.40;;;24.00;99.90;;;;;;4990440;28;20338;-71
2022/08/28 07:34:08;;;;;;;21.97;5.93;;;24.10;99.90;;;;;;4990224;28;20725;-73
2022/08/28 07:36:37;;;;;;;21.10;6.17;;;24.10;99.90;;;;;;4991879;28;20213;-72
2022/08/28 07:39:04;;;;;;;30.60;6.87;;;24.10;99.90;;;;;;4980654;28;20211;-71
2022/08/28 07:41:36;;;;;;;20.07;5.80;;;24.20;99.90;;;;;;4984508;28;20561;-72
2022/08/28 07:46:48;;;;;;;23.87;6.40;;;24.30;99.90;;;;;;5002356;28;20244;-72
2022/08/28 07:49:15;;;;;;;26.10;6.93;;;24.40;99.90;;;;;;4990763;28;20257;-76
2022/08/28 07:51:44;;;;;;;25.03;6.17;;;24.50;99.90;;;;;;4991307;28;20211;-74
2022/08/28 07:54:11;;;;;;;32.57;6.97;;;24.60;99.90;;;;;;4993447;28;20209;-73
2022/08/28 07:56:39;;;;;;;29.80;6.47;;;24.70;99.90;;;;;;4988838;28;20215;-72
2022/08/28 07:59:07;;;;;;;29.60;6.87;;;24.80;99.90;;;;;;4988997;28;20222;-70
2022/08/28 08:01:39;;;;;;;29.17;6.73;;;24.90;99.90;;;;;;4989142;28;20679;-71
2022/08/28 08:04:06;;;;;;;26.75;6.47;;;24.90;99.90;;;;;;4989667;28;20239;-70
2022/08/28 08:06:34;;;;;;;24.92;6.70;;;25.00;99.90;;;;;;4992188;28;20209;-69
2022/08/28 08:09:03;;;;;;;23.55;6.38;;;25.10;99.90;;;;;;4993034;28;20210;-74
2022/08/28 08:11:30;;;;;;;29.75;7.18;;;25.10;99.90;;;;;;4997967;28;20241;-73
2022/08/28 08:14:02;;;;;;;30.33;7.00;;;25.30;99.90;;;;;;4994020;28;20212;-74
2022/08/28 08:16:30;;;;;;;33.80;6.90;;;25.40;99.90;;;;;;4991967;28;20237;-75
2022/08/28 08:18:57;;;;;;;24.40;6.47;;;25.50;99.90;;;;;;4992613;28;20311;-74
2022/08/28 08:21:24;;;;;;;28.13;6.57;;;25.50;99.90;;;;;;4999618;28;20302;-74
2022/08/28 08:23:51;;;;;;;26.13;7.28;;;25.60;99.90;;;;;;4997070;28;20825;-75
2022/08/28 08:26:22;;;;;;;24.17;6.13;;;25.70;99.90;;;;;;4994818;28;20901;-73
2022/08/28 08:28:50;;;;;;;29.75;7.55;;;25.80;99.90;;;;;;4998519;28;20237;-74
2022/08/28 08:31:19;;;;;;;28.35;7.18;;;25.90;99.90;;;;;;4990713;28;20213;-74
2022/08/28 08:33:49;;;;;;;29.25;7.57;;;26.00;99.80;;;;;;4991583;28;20253;-73
2022/08/28 08:36:20;;;;;;;24.75;6.10;;;26.10;99.40;;;;;;4994032;28;20237;-77
2022/08/28 08:38:47;;;;;;;30.52;6.80;;;26.20;99.30;;;;;;4992277;28;20286;-74
2022/08/28 08:41:21;;;;;;;23.33;5.80;;;26.30;99.00;;;;;;4991886;28;20301;-76
2022/08/28 08:43:55;;;;;;;19.30;5.68;;;26.40;98.60;;;;;;4995254;28;20231;-74
2022/08/28 08:46:28;;;;;;;22.65;6.10;;;26.50;98.40;;;;;;4980098;28;20332;-75
2022/08/28 08:48:57;;;;;;;20.75;5.53;;;26.70;98.20;;;;;;4972570;28;20204;-75
2022/08/28 08:51:34;;;;;;;15.43;5.60;;;26.80;97.10;;;;;;4991010;28;20289;-74
2022/08/28 08:54:06;;;;;;;15.15;4.60;;;26.90;96.50;;;;;;4993828;28;20660;-76
2022/08/28 08:56:34;;;;;;;18.75;5.72;;;27.00;96.30;;;;;;4995137;28;20318;-74
2022/08/28 08:59:04;;;;;;;23.60;6.20;;;27.10;96.60;;;;;;4994847;28;20205;-73
2022/08/28 09:01:40;;;;;;;23.90;6.38;;;27.30;96.60;;;;;;4992217;28;20213;-75
2022/08/28 09:04:27;;;;;;;17.20;5.25;;;27.30;96.60;;;;;;5006718;28;20220;-76
2022/08/28 09:06:59;;;;;;;15.55;4.90;;;27.40;92.50;;;;;;5011463;28;20194;-77
2022/08/28 09:09:30;;;;;;;21.17;5.07;;;27.40;92.70;;;;;;5011076;28;20193;-73
2022/08/28 09:12:02;;;;;;;9.32;4.20;;;27.50;92.10;;;;;;5007152;28;20293;-74
2022/08/28 09:14:37;;;;;;;17.30;4.93;;;27.50;91.10;;;;;;4999298;28;20218;-74
2022/08/28 09:17:06;;;;;;;15.10;4.60;;;27.60;91.90;;;;;;5010679;28;20228;-74
2022/08/28 09:19:33;;;;;;;18.67;5.22;;;27.60;92.30;;;;;;5011154;28;20634;-73
2022/08/28 09:22:01;;;;;;;9.85;4.50;;;27.60;91.60;;;;;;5044863;28;20204;-73
2022/08/28 09:24:30;;;;;;;15.35;5.38;;;27.60;91.70;;;;;;5094557;28;20584;-74
2022/08/28 09:27:02;;;;;;;13.98;5.68;;;27.70;91.10;;;;;;5070519;28;20267;-73
2022/08/28 09:29:32;;;;;;;21.73;5.40;;;27.80;91.40;;;;;;5011216;28;20223;-74
2022/08/28 09:32:21;;;;;;;14.73;5.28;;;27.80;91.60;;;;;;5011445;28;20539;-74
2022/08/28 09:35:13;;;;;;;21.35;5.88;;;27.80;92.00;;;;;;5000385;28;20209;-71
2022/08/28 09:37:42;;;;;;;16.92;5.82;;;27.80;91.90;;;;;;5003494;28;20222;-70
2022/08/28 09:40:20;;;;;;;15.80;5.40;;;27.80;91.90;;;;;;4996934;28;20238;-71
2022/08/28 09:45:54;;;;;;;12.25;5.93;;;27.80;91.40;;;;;;4990536;28;20223;-72
2022/08/28 09:48:22;;;;;;;12.68;5.32;;;27.80;91.30;;;;;;4990666;28;20263;-71
2022/08/28 09:50:58;;;;;;;15.43;5.57;;;27.80;91.60;;;;;;4991090;28;20208;-70
2022/08/28 09:53:27;;;;;;;12.52;5.13;;;27.80;91.10;;;;;;4991191;28;20256;-72
2022/08/28 09:56:05;;;;;;;16.17;5.53;;;27.80;91.40;;;;;;4991376;28;20300;-71
2022/08/28 09:58:40;;;;;;;16.40;5.57;;;27.80;91.80;;;;;;4994720;28;20294;-71
2022/08/28 10:01:21;;;;;;;18.90;5.65;;;27.90;91.90;;;;;;4993581;28;20610;-72
2022/08/28 10:03:53;;;;;;;20.95;6.00;;;27.80;92.10;;;;;;5000622;28;20259;-73
2022/08/28 10:06:25;;;;;;;20.38;5.63;;;27.80;92.40;;;;;;4979914;28;20695;-73
2022/08/28 10:09:11;;;;;;;19.40;5.80;;;27.70;92.50;;;;;;4990963;28;20536;-73
2022/08/28 10:11:46;;;;;;;15.63;5.82;;;27.70;92.50;;;;;;4991024;28;20204;-74
2022/08/28 10:14:31;;;;;;;19.48;5.90;;;27.70;92.70;;;;;;4987496;28;20287;-74
2022/08/28 10:17:08;;;;;;;21.77;5.78;;;27.70;92.00;;;;;;4986875;28;20225;-72
2022/08/28 10:19:44;;;;;;;15.57;5.07;;;27.80;92.00;;;;;;4990255;28;20657;-72
2022/08/28 10:22:23;;;;;;;14.85;5.38;;;27.80;92.10;;;;;;4991036;28;20284;-76
2022/08/28 10:25:12;;;;;;;14.35;4.57;;;27.90;92.60;;;;;;4990533;28;20213;-72
2022/08/28 10:27:50;;;;;;;10.00;4.15;;;27.90;91.70;;;;;;5006127;28;20263;-73
2022/08/28 10:30:22;;;;;;;13.48;4.32;;;27.80;91.20;;;;;;4990737;28;20198;-72
2022/08/28 10:33:15;;;;;;;14.65;4.43;;;27.80;91.10;;;;;;4990701;28;20632;-72
2022/08/28 10:35:50;;;;;;;12.60;4.60;;;27.80;91.40;;;;;;4964041;28;20287;-73
2022/08/28 10:38:20;;;;;;;12.68;4.30;;;27.80;91.30;;;;;;4990240;28;20220;-73
2022/08/28 10:40:54;;;;;;;14.88;4.90;;;27.90;91.60;;;;;;5004824;28;20284;-74
2022/08/28 10:43:33;;;;;;;15.15;4.53;;;28.00;91.50;;;;;;5009831;28;20236;-74
2022/08/28 10:46:05;;;;;;;13.05;5.18;;;28.10;91.70;;;;;;4990969;28;20666;-72
2022/08/28 10:48:39;;;;;;;15.93;4.68;;;28.10;92.00;;;;;;4989974;28;20202;-73
2022/08/28 10:51:12;;;;;;;9.07;4.65;;;28.20;91.50;;;;;;4989792;28;20228;-72
2022/08/28 10:53:43;;;;;;;10.80;5.03;;;28.10;91.70;;;;;;4993794;28;20292;-73
2022/08/28 10:56:15;;;;;;;12.60;4.55;;;28.00;91.30;;;;;;4994353;28;20285;-73
2022/08/28 10:58:43;;;;;;;11.05;4.38;;;28.00;91.00;;;;;;4990099;28;20564;-74
2022/08/28 11:01:14;;;;;;;8.80;4.10;;;27.90;91.20;;;;;;4989884;28;20264;-74
2022/08/28 11:03:45;;;;;;;8.38;3.95;;;27.80;90.50;;;;;;4990432;28;20860;-73
2022/08/28 11:06:24;;;;;;;9.15;4.30;;;27.70;90.60;;;;;;4991130;28;20217;-76
2022/08/28 11:08:54;;;;;;;10.90;4.72;;;27.60;90.90;;;;;;4970738;28;20190;-77
2022/08/28 11:11:41;;;;;;;12.70;5.00;;;27.50;90.40;;;;;;5015742;28;20197;-73
2022/08/28 11:14:08;;;;;;;19.25;5.55;;;27.50;89.80;;;;;;5036583;28;20670;-74
2022/08/28 11:16:41;;;;;;;14.18;5.85;;;27.40;89.50;;;;;;4997973;28;20207;-73
2022/08/28 11:19:32;;;;;;;14.50;6.40;;;27.40;89.00;;;;;;4985901;28;20220;-74
2022/08/28 11:22:07;;;;;;;18.65;7.35;;;27.40;88.10;;;;;;4987669;28;20198;-74
2022/08/28 11:24:44;;;;;;;21.80;7.70;;;27.30;88.80;;;;;;4987550;28;20226;-73
2022/08/28 11:27:21;;;;;;;19.13;9.52;;;27.30;89.30;;;;;;4986528;28;20194;-72
2022/08/28 11:30:31;;;;;;;25.63;11.02;;;27.30;88.80;;;;;;4982515;28;20204;-70
2022/08/28 11:33:06;;;;;;;24.55;9.88;;;27.20;89.80;;;;;;4988670;28;20974;-74
2022/08/28 11:35:40;;;;;;;20.73;9.48;;;27.10;90.00;;;;;;4984515;28;20608;-70
2022/08/28 11:38:09;;;;;;;21.63;10.70;;;27.20;90.00;;;;;;4975838;28;20709;-72
2022/08/28 11:40:56;;;;;;;23.65;8.52;;;27.20;90.10;;;;;;4989463;28;20255;-69
2022/08/28 11:43:36;;;;;;;23.27;8.70;;;27.20;90.30;;;;;;4973476;28;20588;-70
2022/08/28 11:46:25;;;;;;;26.13;9.07;;;27.20;90.40;;;;;;4986518;28;20239;-69
2022/08/28 11:48:55;;;;;;;18.45;9.70;;;27.30;90.60;;;;;;4992468;28;20707;-69
2022/08/28 11:51:40;;;;;;;22.88;10.52;;;27.40;90.70;;;;;;4973096;28;20221;-69
2022/08/28 11:54:27;;;;;;;20.92;11.02;;;27.50;90.90;;;;;;4984538;28;20664;-70
2022/08/28 11:57:05;;;;;;;22.98;10.10;;;27.50;90.90;;;;;;4992912;28;20695;-71
2022/08/28 11:59:55;;;;;;;25.50;11.48;;;27.50;90.70;;;;;;5051061;28;20296;-70
2022/08/28 12:02:47;;;;;;;22.95;11.32;;;27.60;91.00;;;;;;5000808;28;20211;-70
2022/08/28 12:05:44;;;;;;;20.95;10.52;;;27.60;91.00;;;;;;4986524;28;20232;-71
2022/08/28 12:08:13;;;;;;;20.42;10.40;;;27.60;91.00;;;;;;4991747;28;20230;-72
2022/08/28 12:10:56;;;;;;;25.80;11.35;;;27.50;90.60;;;;;;4998175;28;20319;-73
2022/08/28 12:13:49;;;;;;;23.23;11.60;;;27.60;90.90;;;;;;4993036;28;20202;-72
2022/08/28 12:16:17;;;;;;;22.98;11.60;;;27.60;91.10;;;;;;4995231;28;20225;-70
2022/08/28 12:19:00;;;;;;;22.45;11.18;;;27.60;91.10;;;;;;4997547;28;20209;-71
2022/08/28 12:21:35;;;;;;;25.20;13.57;;;27.60;91.10;;;;;;4993344;28;20230;-69
2022/08/28 12:24:05;;;;;;;25.35;12.85;;;27.60;90.90;;;;;;4999990;28;20198;-68
2022/08/28 12:26:37;;;;;;;28.20;12.95;;;27.70;90.90;;;;;;4992519;28;20300;-69
2022/08/28 12:29:17;;;;;;;24.95;12.63;;;27.70;90.90;;;;;;4992747;28;20203;-69
2022/08/28 12:32:11;;;;;;;29.80;12.80;;;27.70;90.80;;;;;;4992092;28;20224;-71
2022/08/28 12:34:46;;;;;;;21.33;11.27;;;27.60;90.50;;;;;;4982570;28;20195;-69
2022/08/28 12:37:38;;;;;;;30.08;11.50;;;27.50;90.30;;;;;;4986539;28;20232;-69
2022/08/28 12:40:14;;;;;;;18.23;9.07;;;27.50;90.70;;;;;;4990268;28;20193;-69
2022/08/28 12:42:47;;;;;;;18.88;9.13;;;27.50;90.20;;;;;;4988633;28;20286;-70
2022/08/28 12:45:20;;;;;;;17.55;8.77;;;27.50;90.00;;;;;;5000152;28;20230;-68
2022/08/28 12:47:48;;;;;;;16.70;8.63;;;27.50;90.30;;;;;;4994331;28;20242;-70
2022/08/28 12:50:30;;;;;;;18.55;10.10;;;27.50;89.80;;;;;;4999588;28;20230;-70
2022/08/28 12:53:01;;;;;;;25.30;10.18;;;27.50;89.20;;;;;;4994578;28;20296;-69
2022/08/28 12:55:28;;;;;;;21.80;10.20;;;27.40;89.30;;;;;;4994737;28;20210;-70
2022/08/28 12:57:55;;;;;;;21.27;8.73;;;27.40;89.20;;;;;;4991431;28;20216;-68
2022/08/28 13:00:25;;;;;;;17.00;7.95;;;27.40;88.40;;;;;;4990699;28;20320;-71
2022/08/28 13:02:54;;;;;;;20.77;10.30;;;27.40;88.20;;;;;;4995922;28;20639;-70